createdAt,value
2022-08-14T21:59:32.655Z,1001.52
2022-08-14T22:00:36.397Z,1001.48
2022-08-14T22:02:01.164Z,1001.48
2022-08-14T22:02:33.721Z,1001.46
2022-08-14T22:03:35.517Z,1001.42
2022-08-14T22:04:34.576Z,1001.48
2022-08-14T22:05:33.575Z,1001.41
2022-08-14T22:06:32.556Z,1001.41
2022-08-14T22:07:32.524Z,1001.43
2022-08-14T22:08:32.522Z,1001.43
2022-08-14T22:09:36.768Z,1001.42
2022-08-14T22:10:32.528Z,1001.39
2022-08-14T22:11:32.499Z,1001.38
2022-08-14T22:12:45.387Z,1001.37
2022-08-14T22:13:33.437Z,1001.37
2022-08-14T22:14:33.455Z,1001.35
2022-08-14T22:15:33.449Z,1001.32
2022-08-14T22:17:00.215Z,1001.32
2022-08-14T22:17:34.217Z,1001.28
2022-08-14T22:18:32.369Z,1001.27
2022-08-14T22:19:43.452Z,1001.23
2022-08-14T22:20:33.372Z,1001.30
2022-08-14T22:21:32.351Z,1001.27
2022-08-14T22:22:32.344Z,1001.29
2022-08-14T22:23:32.342Z,1001.22
2022-08-14T22:24:38.667Z,1001.21
2022-08-14T22:25:34.511Z,1001.22
2022-08-14T22:26:33.264Z,1001.21
2022-08-14T22:27:32.662Z,1001.19
2022-08-14T22:28:32.729Z,1001.15
2022-08-14T22:29:32.209Z,1001.17
2022-08-14T22:30:32.203Z,1001.16
2022-08-14T22:31:34.999Z,1001.15
2022-08-14T22:32:56.681Z,1001.15
2022-08-14T22:33:33.186Z,1001.13
2022-08-14T22:34:32.155Z,1001.16
2022-08-14T22:35:32.125Z,1001.13
2022-08-14T22:36:33.781Z,1001.16
2022-08-14T22:37:33.108Z,1001.13
2022-08-14T22:38:37.167Z,1001.12
2022-08-14T22:40:54.605Z,1001.08
2022-08-14T22:41:01.907Z,1001.10
2022-08-14T22:41:42.442Z,1001.05
2022-08-14T22:42:35.294Z,1001.04
2022-08-14T22:43:32.069Z,1001.07
2022-08-14T22:44:32.026Z,1001.04
2022-08-14T22:45:36.335Z,1001.07
2022-08-14T22:46:33.036Z,1001.03
2022-08-14T22:47:40.551Z,1001.06
2022-08-14T22:48:32.988Z,1001.03
2022-08-14T22:50:32.291Z,1001.04
2022-08-14T22:50:33.841Z,1001.06
2022-08-14T22:51:31.926Z,1001.05
2022-08-14T22:52:33.713Z,1001.03
2022-08-14T22:53:32.937Z,1001.03
2022-08-14T22:54:52.367Z,1001.03
2022-08-14T22:55:36.582Z,1001.05
2022-08-14T22:56:31.840Z,1001.04
2022-08-14T22:57:37.118Z,1001.05
2022-08-14T22:58:34.943Z,1001.04
2022-08-14T22:59:36.890Z,1001.01
2022-08-14T23:00:32.831Z,1001.01
2022-08-14T23:01:55.433Z,1000.99
2022-08-14T23:02:32.772Z,1000.98
2022-08-14T23:03:34.857Z,1001.01
2022-08-14T23:04:34.795Z,1000.97
2022-08-14T23:07:03.304Z,1000.98
2022-08-14T23:08:56.431Z,1000.98
2022-08-14T23:09:01.829Z,1000.96
2022-08-14T23:09:46.777Z,1001.00
2022-08-14T23:10:46.781Z,1001.00
2022-08-14T23:11:45.744Z,1000.98
2022-08-14T23:12:45.917Z,1000.96
2022-08-14T23:13:46.719Z,1000.93
2022-08-14T23:14:45.718Z,1000.96
2022-08-14T23:15:45.682Z,1000.98
2022-08-14T23:16:45.677Z,1000.96
2022-08-14T23:17:45.663Z,1000.98
2022-08-14T23:18:45.663Z,1000.96
2022-08-14T23:19:45.637Z,1000.97
2022-08-14T23:20:45.646Z,1000.99
2022-08-14T23:21:46.311Z,1000.99
2022-08-14T23:22:45.823Z,1000.99
2022-08-14T23:23:45.615Z,1001.01
2022-08-14T23:24:45.592Z,1000.99
2022-08-14T23:25:59.656Z,1000.95
2022-08-14T23:26:49.920Z,1001.00
2022-08-14T23:28:02.562Z,1000.94
2022-08-14T23:28:57.268Z,1000.99
2022-08-14T23:29:46.557Z,1000.96
2022-08-14T23:30:49.041Z,1000.92
2022-08-14T23:31:45.468Z,1000.91
2022-08-14T23:32:45.571Z,1000.91
2022-08-14T23:33:51.832Z,1000.90
2022-08-14T23:34:48.102Z,1000.91
2022-08-14T23:35:59.078Z,1000.92
2022-08-14T23:36:54.171Z,1000.86
2022-08-14T23:37:46.390Z,1000.87
2022-08-14T23:38:45.391Z,1000.84
2022-08-14T23:39:45.423Z,1000.81
2022-08-14T23:40:45.360Z,1000.81
2022-08-14T23:41:46.203Z,1000.79
2022-08-14T23:42:46.322Z,1000.82
2022-08-14T23:43:45.303Z,1000.80
2022-08-14T23:44:45.910Z,1000.81
2022-08-14T23:45:54.067Z,1000.80
2022-08-14T23:46:45.376Z,1000.77
2022-08-14T23:47:52.084Z,1000.78
2022-08-14T23:48:46.575Z,1000.77
2022-08-14T23:49:56.897Z,1000.74
2022-08-14T23:50:46.221Z,1000.73
2022-08-14T23:51:45.251Z,1000.68
2022-08-14T23:52:50.916Z,1000.67
2022-08-14T23:53:48.481Z,1000.66
2022-08-14T23:54:48.846Z,1000.66
2022-08-14T23:55:45.150Z,1000.67
2022-08-14T23:56:46.196Z,1000.61
2022-08-14T23:57:57.969Z,1000.66
2022-08-14T23:58:49.144Z,1000.64
2022-08-14T23:59:54.761Z,1000.64
